createdAt,value
2019-02-06T00:01:03.968Z,27.70
2019-02-06T00:03:33.229Z,28.83
2019-02-06T00:06:02.603Z,24.60
2019-02-06T00:08:31.946Z,23.90
2019-02-06T00:11:01.350Z,23.13
2019-02-06T00:13:30.970Z,24.87
2019-02-06T00:16:00.413Z,23.50
2019-02-06T00:18:30.578Z,22.80
2019-02-06T00:20:59.889Z,24.57
2019-02-06T00:23:29.157Z,20.50
2019-02-06T00:25:58.432Z,22.93
2019-02-06T00:28:27.707Z,21.60
2019-02-06T00:30:56.953Z,22.87
2019-02-06T00:33:26.237Z,21.40
2019-02-06T00:35:55.494Z,21.17
2019-02-06T00:38:24.788Z,24.20
2019-02-06T00:40:53.950Z,23.20
2019-02-06T00:43:23.276Z,20.03
2019-02-06T00:45:52.588Z,23.83
2019-02-06T00:48:21.911Z,22.70
2019-02-06T00:50:51.342Z,26.17
2019-02-06T00:53:20.576Z,26.30
2019-02-06T00:55:49.927Z,20.73
2019-02-06T00:58:19.247Z,26.97
2019-02-06T01:00:48.578Z,26.10
2019-02-06T01:03:17.980Z,26.07
2019-02-06T01:05:50.591Z,25.40
2019-02-06T01:08:20.059Z,23.37
2019-02-06T01:10:49.591Z,25.53
2019-02-06T01:13:19.517Z,26.57
2019-02-06T01:15:49.026Z,26.70
2019-02-06T01:18:18.300Z,26.47
2019-02-06T01:20:47.623Z,20.50
2019-02-06T01:23:16.943Z,25.70
2019-02-06T01:25:46.366Z,22.97
2019-02-06T01:28:18.226Z,24.17
2019-02-06T01:30:52.957Z,23.10
2019-02-06T01:33:22.343Z,20.37
2019-02-06T01:35:51.631Z,20.43
2019-02-06T01:38:21.030Z,21.60
2019-02-06T01:40:50.377Z,23.20
2019-02-06T01:43:20.472Z,21.10
2019-02-06T01:45:49.852Z,24.40
2019-02-06T01:48:19.141Z,19.80
2019-02-06T01:50:50.736Z,19.80
2019-02-06T01:53:20.050Z,23.50
2019-02-06T01:55:49.458Z,22.33
2019-02-06T01:58:19.440Z,20.67
2019-02-06T02:00:48.647Z,22.87
2019-02-06T02:03:18.049Z,24.00
2019-02-06T02:05:47.408Z,20.40
2019-02-06T02:08:16.756Z,20.37
2019-02-06T02:10:45.957Z,23.70
2019-02-06T02:13:15.256Z,23.47
2019-02-06T02:15:44.534Z,23.30
2019-02-06T02:18:13.746Z,20.73
2019-02-06T02:20:43.051Z,22.27
2019-02-06T02:23:12.237Z,20.43
2019-02-06T02:25:41.682Z,23.40
2019-02-06T02:28:11.056Z,23.40
2019-02-06T02:30:44.012Z,21.80
2019-02-06T02:33:13.430Z,19.07
2019-02-06T02:35:42.733Z,22.50
2019-02-06T02:38:12.141Z,21.83
2019-02-06T02:40:41.382Z,22.27
2019-02-06T02:43:10.997Z,19.90
2019-02-06T02:45:40.336Z,19.67
2019-02-06T02:48:09.544Z,20.60
2019-02-06T02:50:38.796Z,21.23
2019-02-06T02:53:08.086Z,21.50
2019-02-06T02:55:37.311Z,19.70
2019-02-06T02:58:08.351Z,22.30
2019-02-06T03:00:51.572Z,20.10
2019-02-06T03:03:42.615Z,18.47
2019-02-06T03:06:12.352Z,17.27
2019-02-06T03:08:41.748Z,17.70
2019-02-06T03:11:11.157Z,20.17
2019-02-06T03:13:40.627Z,16.27
2019-02-06T03:16:09.842Z,19.77
2019-02-06T03:18:39.268Z,19.03
2019-02-06T03:21:08.723Z,19.47
2019-02-06T03:23:37.977Z,13.97
2019-02-06T03:26:07.389Z,19.53
2019-02-06T03:28:36.685Z,18.00
2019-02-06T03:31:05.992Z,16.80
2019-02-06T03:33:35.239Z,16.43
2019-02-06T03:36:04.939Z,16.50
2019-02-06T03:38:34.240Z,17.70
2019-02-06T03:41:03.503Z,17.70
2019-02-06T03:43:32.855Z,14.40
2019-02-06T03:46:03.665Z,14.93
2019-02-06T03:48:33.047Z,16.93
2019-02-06T03:51:02.612Z,15.20
2019-02-06T03:53:31.911Z,17.13
2019-02-06T03:56:01.157Z,14.73
2019-02-06T03:58:30.483Z,14.70
2019-02-06T04:00:59.652Z,14.83
2019-02-06T04:03:28.954Z,15.97
2019-02-06T04:05:58.332Z,14.00
2019-02-06T04:08:27.473Z,13.60
2019-02-06T04:10:56.765Z,15.37
2019-02-06T04:13:26.143Z,15.30
2019-02-06T04:15:55.590Z,12.07
2019-02-06T04:18:24.858Z,14.10
2019-02-06T04:20:54.433Z,13.13
2019-02-06T04:23:23.693Z,12.17
2019-02-06T04:25:53.023Z,11.87
2019-02-06T04:28:22.341Z,13.60
2019-02-06T04:30:51.596Z,13.70
2019-02-06T04:33:20.876Z,14.63
2019-02-06T04:35:50.232Z,11.87
2019-02-06T04:38:19.693Z,12.80
2019-02-06T04:40:48.997Z,12.60
2019-02-06T04:43:18.273Z,14.00
2019-02-06T04:45:47.689Z,13.47
2019-02-06T04:48:17.014Z,12.07
2019-02-06T04:50:46.424Z,12.13
2019-02-06T04:53:15.659Z,11.80
2019-02-06T04:55:44.938Z,13.20
2019-02-06T04:58:14.238Z,13.03
2019-02-06T05:00:43.485Z,13.20
2019-02-06T05:03:12.761Z,12.63
2019-02-06T05:05:42.101Z,13.03
2019-02-06T05:08:11.776Z,11.27
2019-02-06T05:10:41.114Z,10.03
2019-02-06T05:13:10.521Z,11.30
2019-02-06T05:15:39.813Z,10.70
2019-02-06T05:18:09.118Z,11.60
2019-02-06T05:20:39.839Z,10.97
2019-02-06T05:23:11.598Z,10.57
2019-02-06T05:25:40.921Z,13.20
2019-02-06T05:28:10.263Z,14.07
2019-02-06T05:30:39.606Z,10.87
2019-02-06T05:33:09.037Z,13.10
2019-02-06T05:35:38.401Z,13.00
2019-02-06T05:38:08.444Z,14.10
2019-02-06T05:40:37.951Z,12.37
2019-02-06T05:43:07.251Z,12.80
2019-02-06T05:45:36.551Z,11.97
2019-02-06T05:48:05.991Z,12.13
2019-02-06T05:50:35.325Z,11.70
2019-02-06T05:53:04.895Z,12.27
2019-02-06T05:55:34.106Z,13.43
2019-02-06T05:58:03.356Z,12.80
2019-02-06T06:00:36.991Z,13.10
2019-02-06T06:03:06.398Z,12.00
2019-02-06T06:05:35.777Z,11.93
2019-02-06T06:08:05.132Z,12.17
2019-02-06T06:10:34.491Z,11.47
2019-02-06T06:13:03.790Z,11.10
2019-02-06T06:15:33.133Z,10.60
2019-02-06T06:18:02.488Z,10.63
2019-02-06T06:20:33.606Z,12.20
2019-02-06T06:23:02.890Z,11.50
2019-02-06T06:25:32.373Z,8.87
2019-02-06T06:28:01.712Z,11.77
2019-02-06T06:30:30.965Z,10.00
2019-02-06T06:33:00.291Z,11.17
2019-02-06T06:35:29.615Z,10.40
2019-02-06T06:38:00.325Z,11.90
2019-02-06T06:40:29.971Z,12.07
2019-02-06T06:42:59.251Z,11.80
2019-02-06T06:45:28.527Z,12.50
2019-02-06T06:47:57.982Z,11.57
2019-02-06T06:50:27.316Z,11.80
2019-02-06T06:52:56.596Z,11.20
2019-02-06T06:55:26.275Z,10.90
2019-02-06T06:57:55.614Z,10.13
2019-02-06T07:00:29.491Z,10.27
2019-02-06T07:02:58.773Z,9.47
2019-02-06T07:05:28.087Z,11.13
2019-02-06T07:08:08.773Z,10.87
2019-02-06T07:10:28.765Z,9.53
2019-02-06T07:12:58.129Z,10.43
2019-02-06T07:15:33.001Z,9.60
2019-02-06T07:18:02.476Z,11.70
2019-02-06T07:20:31.866Z,12.30
2019-02-06T07:23:01.433Z,10.73
2019-02-06T07:25:30.712Z,10.13
2019-02-06T07:27:59.899Z,11.43
2019-02-06T07:30:33.981Z,10.87
2019-02-06T07:33:03.383Z,11.60
2019-02-06T07:35:33.650Z,10.03
2019-02-06T07:38:02.826Z,8.90
2019-02-06T07:40:32.392Z,10.40
2019-02-06T07:43:01.643Z,10.17
2019-02-06T07:45:30.909Z,11.57
2019-02-06T07:48:00.192Z,11.77
2019-02-06T07:50:31.370Z,11.87
2019-02-06T07:53:00.778Z,10.60
2019-02-06T07:55:30.146Z,9.90
2019-02-06T07:57:59.549Z,12.00
2019-02-06T08:00:28.770Z,8.50
2019-02-06T08:02:58.395Z,11.27
2019-02-06T08:05:27.813Z,11.20
2019-02-06T08:07:57.390Z,11.63
2019-02-06T08:10:31.717Z,11.47
2019-02-06T08:13:01.255Z,9.93
2019-02-06T08:15:30.669Z,9.23
2019-02-06T08:18:00.050Z,10.20
2019-02-06T08:20:29.364Z,11.70
2019-02-06T08:22:58.609Z,9.77
2019-02-06T08:25:28.029Z,10.30
2019-02-06T08:27:57.296Z,10.90
2019-02-06T08:30:28.952Z,9.70
2019-02-06T08:32:58.385Z,11.63
2019-02-06T08:35:27.878Z,9.90
2019-02-06T08:37:57.309Z,9.00
2019-02-06T08:40:27.187Z,10.40
2019-02-06T08:42:56.746Z,12.37
2019-02-06T08:45:26.195Z,11.63
2019-02-06T08:47:55.994Z,10.20
2019-02-06T08:50:25.766Z,8.60
2019-02-06T08:52:55.154Z,10.20
2019-02-06T08:55:26.759Z,10.00
2019-02-06T08:57:56.444Z,8.30
2019-02-06T09:00:30.603Z,9.63
2019-02-06T09:03:00.311Z,10.33
2019-02-06T09:05:30.038Z,9.63
2019-02-06T09:07:59.375Z,10.87
2019-02-06T09:10:28.810Z,9.90
2019-02-06T09:12:59.661Z,9.40
2019-02-06T09:15:29.230Z,8.40
2019-02-06T09:17:58.623Z,9.90
2019-02-06T09:20:29.645Z,11.50
2019-02-06T09:22:59.069Z,11.43
2019-02-06T09:25:28.563Z,9.80
2019-02-06T09:27:57.789Z,9.13
2019-02-06T09:30:28.626Z,9.97
2019-02-06T09:32:58.237Z,11.07
2019-02-06T09:35:27.756Z,9.37
2019-02-06T09:37:57.156Z,9.40
2019-02-06T09:40:45.694Z,10.90
2019-02-06T09:43:14.916Z,9.43
2019-02-06T09:45:44.572Z,10.23
2019-02-06T09:48:13.854Z,8.80
2019-02-06T09:50:43.242Z,10.63
2019-02-06T09:53:12.635Z,10.40
2019-02-06T09:55:41.949Z,8.20
2019-02-06T09:58:11.353Z,7.93
2019-02-06T10:00:40.790Z,9.90
2019-02-06T10:03:10.142Z,9.10
2019-02-06T10:05:39.394Z,9.90
2019-02-06T10:08:08.726Z,8.70
2019-02-06T10:10:38.117Z,8.53
2019-02-06T10:13:07.836Z,9.93
2019-02-06T10:15:38.482Z,8.00
2019-02-06T10:18:08.444Z,9.33
2019-02-06T10:20:40.167Z,9.30
2019-02-06T10:23:09.521Z,8.60
2019-02-06T10:25:38.848Z,8.50
2019-02-06T10:28:08.150Z,8.83
2019-02-06T10:30:45.794Z,8.70
2019-02-06T10:33:15.150Z,9.73
2019-02-06T10:35:44.470Z,8.80
2019-02-06T10:38:13.822Z,9.00
2019-02-06T10:40:43.103Z,8.73
2019-02-06T10:43:12.441Z,6.77
2019-02-06T10:45:42.025Z,8.77
2019-02-06T10:48:11.370Z,8.20
2019-02-06T10:50:46.582Z,9.40
2019-02-06T10:53:37.690Z,9.00
2019-02-06T10:56:07.116Z,7.43
2019-02-06T10:58:36.335Z,9.10
2019-02-06T11:01:06.437Z,9.03
2019-02-06T11:03:35.781Z,7.90
2019-02-06T11:06:05.546Z,7.93
2019-02-06T11:08:37.918Z,8.67
2019-02-06T11:11:11.438Z,8.50
2019-02-06T11:13:40.857Z,8.53
2019-02-06T11:16:10.022Z,7.37
2019-02-06T11:18:39.387Z,8.50
2019-02-06T11:21:08.634Z,9.07
2019-02-06T11:23:38.200Z,8.50
2019-02-06T11:26:07.576Z,7.77
2019-02-06T11:28:37.154Z,9.60
2019-02-06T11:31:06.404Z,6.33
2019-02-06T11:33:35.872Z,9.17
2019-02-06T11:36:05.442Z,8.00
2019-02-06T11:38:35.022Z,7.20
2019-02-06T11:41:04.229Z,8.03
2019-02-06T11:43:33.515Z,8.80
2019-02-06T11:46:02.922Z,7.87
2019-02-06T11:48:32.204Z,8.50
2019-02-06T11:51:01.473Z,9.73
2019-02-06T11:53:31.253Z,8.17
2019-02-06T11:56:00.533Z,9.27
2019-02-06T11:58:30.083Z,8.53
2019-02-06T12:01:05.801Z,8.97
2019-02-06T12:03:35.180Z,8.53
2019-02-06T12:06:04.479Z,9.67
2019-02-06T12:08:33.907Z,9.07
2019-02-06T12:11:03.151Z,9.37
2019-02-06T12:13:32.480Z,7.97
2019-02-06T12:16:01.802Z,8.57
2019-02-06T12:18:31.110Z,9.90
2019-02-06T12:21:00.388Z,7.93
2019-02-06T12:23:32.382Z,8.20
2019-02-06T12:26:01.047Z,9.43
2019-02-06T12:28:30.326Z,8.50
2019-02-06T12:30:59.694Z,9.10
2019-02-06T12:33:28.974Z,8.20
2019-02-06T12:35:58.362Z,8.50
2019-02-06T12:38:28.077Z,9.07
2019-02-06T12:40:57.430Z,7.93
2019-02-06T12:43:26.714Z,8.13
2019-02-06T12:45:55.901Z,8.80
2019-02-06T12:48:25.199Z,9.33
2019-02-06T12:50:54.428Z,8.70
2019-02-06T12:53:34.013Z,8.17
2019-02-06T12:56:07.287Z,8.27
2019-02-06T12:58:36.651Z,8.60
2019-02-06T13:01:06.527Z,7.00
2019-02-06T13:03:35.892Z,8.37
2019-02-06T13:06:05.367Z,9.07
2019-02-06T13:08:34.619Z,9.00
2019-02-06T13:11:03.968Z,6.93
2019-02-06T13:13:33.275Z,8.70
2019-02-06T13:16:02.564Z,8.00
2019-02-06T13:18:31.842Z,9.53
2019-02-06T13:21:22.427Z,8.90
2019-02-06T13:23:51.674Z,8.20
2019-02-06T13:26:21.068Z,8.70
2019-02-06T13:28:50.528Z,8.53
2019-02-06T13:31:20.534Z,7.50
2019-02-06T13:33:49.931Z,8.93
2019-02-06T13:36:19.624Z,8.63
2019-02-06T13:38:49.010Z,9.30
2019-02-06T13:41:18.290Z,10.03
2019-02-06T13:43:47.552Z,7.20
2019-02-06T13:46:16.970Z,8.57
2019-02-06T13:48:46.209Z,9.10
2019-02-06T13:51:19.523Z,7.80
2019-02-06T13:53:46.978Z,7.30
2019-02-06T13:56:16.333Z,8.60
2019-02-06T13:58:45.655Z,8.30
2019-02-06T14:01:25.360Z,7.30
2019-02-06T14:03:45.860Z,7.63
2019-02-06T14:06:15.297Z,7.13
2019-02-06T14:08:44.874Z,8.77
2019-02-06T14:11:14.155Z,8.37
2019-02-06T14:14:02.586Z,7.63
2019-02-06T14:16:32.151Z,8.30
2019-02-06T14:19:01.452Z,9.27
2019-02-06T14:21:30.949Z,8.10
2019-02-06T14:24:43.733Z,9.07
2019-02-06T14:27:20.032Z,8.47
2019-02-06T14:30:24.892Z,7.87
2019-02-06T14:33:33.726Z,7.77
2019-02-06T14:36:30.590Z,7.10
2019-02-06T14:39:20.230Z,7.50
2019-02-06T14:42:35.995Z,7.77
2019-02-06T14:45:18.848Z,6.57
2019-02-06T14:47:57.490Z,7.03
2019-02-06T14:50:53.913Z,6.80
2019-02-06T14:53:38.284Z,9.07
2019-02-06T14:56:26.604Z,6.67
2019-02-06T14:59:25.123Z,6.97
2019-02-06T15:02:19.594Z,8.20
2019-02-06T15:05:52.596Z,7.27
2019-02-06T15:09:18.326Z,6.80
2019-02-06T15:12:07.510Z,6.83
2019-02-06T15:15:18.005Z,8.07
2019-02-06T15:18:34.933Z,7.60
2019-02-06T15:21:25.673Z,7.60
2019-02-06T15:24:36.596Z,9.23
2019-02-06T15:28:00.452Z,7.97
2019-02-06T15:31:05.318Z,7.50
2019-02-06T15:34:10.879Z,7.73
2019-02-06T15:37:14.809Z,7.10
2019-02-06T15:40:22.433Z,6.43
2019-02-06T15:43:22.385Z,6.53
2019-02-06T15:46:14.827Z,7.43
2019-02-06T15:48:59.345Z,10.93
2019-02-06T15:52:09.228Z,9.70
2019-02-06T15:55:34.275Z,8.50
2019-02-06T15:58:37.173Z,7.53
2019-02-06T16:01:30.481Z,6.03
2019-02-06T16:04:35.776Z,6.83
2019-02-06T16:07:39.856Z,7.33
2019-02-06T16:10:44.255Z,6.50
2019-02-06T16:13:36.686Z,5.83
2019-02-06T16:16:34.770Z,6.13
2019-02-06T16:19:26.250Z,7.60
2019-02-06T16:22:44.005Z,7.40
2019-02-06T16:25:54.297Z,8.20
2019-02-06T16:28:33.953Z,7.20
2019-02-06T16:32:00.788Z,7.90
2019-02-06T16:34:56.383Z,8.73
2019-02-06T16:38:18.535Z,6.07
2019-02-06T16:41:32.214Z,7.40
2019-02-06T16:44:48.285Z,7.53
2019-02-06T16:47:45.262Z,7.10
2019-02-06T16:50:28.152Z,8.00
2019-02-06T16:53:15.272Z,6.77
2019-02-06T16:56:37.938Z,6.37
2019-02-06T16:59:40.903Z,6.20
2019-02-06T17:03:12.181Z,7.53
2019-02-06T17:05:56.587Z,6.60
2019-02-06T17:09:07.426Z,8.13
2019-02-06T17:11:49.149Z,6.53
2019-02-06T17:14:53.425Z,8.10
2019-02-06T17:17:57.925Z,6.00
2019-02-06T17:20:49.784Z,6.67
2019-02-06T17:23:40.682Z,7.20
2019-02-06T17:26:41.955Z,6.50
2019-02-06T17:29:25.365Z,7.67
2019-02-06T17:32:36.190Z,6.83
2019-02-06T17:35:43.478Z,6.40
2019-02-06T17:38:39.450Z,10.30
2019-02-06T17:42:01.952Z,8.07
2019-02-06T17:44:55.043Z,7.53
2019-02-06T17:47:39.441Z,7.50
2019-02-06T17:50:50.062Z,8.70
2019-02-06T17:53:53.493Z,7.33
2019-02-06T17:56:23.637Z,8.40
2019-02-06T17:58:53.644Z,6.57
2019-02-06T18:01:50.625Z,8.57
2019-02-06T18:04:25.837Z,6.80
2019-02-06T18:06:55.966Z,7.13
2019-02-06T18:09:25.621Z,8.00
2019-02-06T18:11:55.272Z,7.67
2019-02-06T18:14:25.054Z,7.87
2019-02-06T18:16:54.817Z,7.07
2019-02-06T18:19:24.343Z,6.83
2019-02-06T18:21:54.100Z,7.93
2019-02-06T18:24:23.842Z,6.07
2019-02-06T18:26:54.771Z,8.10
2019-02-06T18:29:24.578Z,6.40
2019-02-06T18:31:54.243Z,7.17
2019-02-06T18:34:23.933Z,7.20
2019-02-06T18:36:53.962Z,8.73
2019-02-06T18:39:23.606Z,8.33
2019-02-06T18:41:53.371Z,7.50
2019-02-06T18:44:25.112Z,6.97
2019-02-06T18:46:55.994Z,7.30
2019-02-06T18:49:25.581Z,6.10
2019-02-06T18:51:55.300Z,6.97
2019-02-06T18:54:25.408Z,8.30
2019-02-06T18:56:55.091Z,7.50
2019-02-06T18:59:25.125Z,8.03
2019-02-06T19:01:55.488Z,8.17
2019-02-06T19:04:25.546Z,7.77
2019-02-06T19:06:55.782Z,7.03
2019-02-06T19:09:25.532Z,7.43
2019-02-06T19:11:55.278Z,7.27
2019-02-06T19:14:25.030Z,6.93
2019-02-06T19:16:54.849Z,6.50
2019-02-06T19:19:25.782Z,6.60
2019-02-06T19:21:55.681Z,7.30
2019-02-06T19:24:25.363Z,5.30
2019-02-06T19:26:54.996Z,5.87
2019-02-06T19:29:25.190Z,7.00
2019-02-06T19:31:54.983Z,5.80
2019-02-06T19:34:24.666Z,6.90
2019-02-06T19:36:54.316Z,6.60
2019-02-06T19:39:26.374Z,6.67
2019-02-06T19:41:57.849Z,8.27
2019-02-06T19:44:27.874Z,6.77
2019-02-06T19:46:58.850Z,7.33
2019-02-06T19:49:28.413Z,7.20
2019-02-06T19:51:58.145Z,7.47
2019-02-06T19:54:29.157Z,5.60
2019-02-06T19:56:58.791Z,6.93
2019-02-06T19:59:28.629Z,7.70
2019-02-06T20:02:00.736Z,6.70
2019-02-06T20:04:30.297Z,6.20
2019-02-06T20:07:00.091Z,6.53
2019-02-06T20:09:32.317Z,7.00
2019-02-06T20:12:01.997Z,6.67
2019-02-06T20:14:31.674Z,7.50
2019-02-06T20:17:01.788Z,7.87
2019-02-06T20:19:31.572Z,9.30
2019-02-06T20:22:01.214Z,7.60
2019-02-06T20:24:30.819Z,6.23
2019-02-06T20:27:00.451Z,6.57
2019-02-06T20:29:33.332Z,7.70
2019-02-06T20:32:03.892Z,8.20
2019-02-06T20:34:33.660Z,6.90
2019-02-06T20:37:03.353Z,7.27
2019-02-06T20:39:33.068Z,6.67
2019-02-06T20:42:02.725Z,6.97
2019-02-06T20:44:32.656Z,7.30
2019-02-06T20:47:02.642Z,6.90
2019-02-06T20:49:32.592Z,8.33
2019-02-06T20:52:02.125Z,8.60
2019-02-06T20:54:31.759Z,8.47
2019-02-06T20:57:11.789Z,7.50
2019-02-06T20:59:33.178Z,7.50
2019-02-06T21:02:03.107Z,6.90
2019-02-06T21:04:32.906Z,6.70
2019-02-06T21:07:02.630Z,7.80
2019-02-06T21:09:32.166Z,8.13
2019-02-06T21:12:01.706Z,7.30
2019-02-06T21:14:31.366Z,8.90
2019-02-06T21:17:01.106Z,6.20
2019-02-06T21:19:31.187Z,7.43
2019-02-06T21:22:01.068Z,7.00
2019-02-06T21:24:30.612Z,7.33
2019-02-06T21:27:00.170Z,7.70
2019-02-06T21:29:29.683Z,8.07
2019-02-06T21:31:59.410Z,7.30
2019-02-06T21:34:29.181Z,8.17
2019-02-06T21:36:58.855Z,7.27
2019-02-06T21:39:28.632Z,7.90
2019-02-06T21:41:58.192Z,7.57
2019-02-06T21:44:27.816Z,7.83
2019-02-06T21:46:57.347Z,6.83
2019-02-06T21:49:27.206Z,7.20
2019-02-06T21:51:56.945Z,9.40
2019-02-06T21:54:28.893Z,8.20
2019-02-06T21:56:58.343Z,7.27
2019-02-06T21:59:27.986Z,8.10
2019-02-06T22:01:57.586Z,7.27
2019-02-06T22:04:27.358Z,7.90
2019-02-06T22:06:56.938Z,7.17
2019-02-06T22:09:26.588Z,9.17
2019-02-06T22:11:56.133Z,8.13
2019-02-06T22:14:25.596Z,9.13
2019-02-06T22:16:55.350Z,8.07
2019-02-06T22:19:24.936Z,8.47
2019-02-06T22:21:54.407Z,8.83
2019-02-06T22:24:23.910Z,9.10
2019-02-06T22:26:53.298Z,9.13
2019-02-06T22:29:23.358Z,10.13
2019-02-06T22:31:52.647Z,9.00
2019-02-06T22:34:22.013Z,8.57
2019-02-06T22:36:51.333Z,8.60
2019-02-06T22:39:20.633Z,10.67
2019-02-06T22:41:49.958Z,8.87
2019-02-06T22:44:19.281Z,9.80
2019-02-06T22:46:48.482Z,9.33
2019-02-06T22:49:17.851Z,8.80
2019-02-06T22:51:47.125Z,10.17
2019-02-06T22:54:16.395Z,7.63
2019-02-06T22:56:45.619Z,8.93
2019-02-06T22:59:14.962Z,7.23
2019-02-06T23:01:48.388Z,9.00
2019-02-06T23:04:17.848Z,10.50
2019-02-06T23:06:47.281Z,9.10
2019-02-06T23:09:16.863Z,8.97
2019-02-06T23:11:46.271Z,10.27
2019-02-06T23:14:17.786Z,7.70
2019-02-06T23:16:46.627Z,8.00
2019-02-06T23:19:15.962Z,8.90
2019-02-06T23:21:45.303Z,9.40
2019-02-06T23:24:14.676Z,9.33
2019-02-06T23:26:43.916Z,9.00
2019-02-06T23:29:13.209Z,9.73
2019-02-06T23:31:42.593Z,10.27
2019-02-06T23:34:11.901Z,9.27
2019-02-06T23:36:41.242Z,9.00
2019-02-06T23:39:15.721Z,10.20
2019-02-06T23:41:45.052Z,7.57
2019-02-06T23:44:14.687Z,9.10
2019-02-06T23:46:44.041Z,10.43
2019-02-06T23:49:13.269Z,9.70
2019-02-06T23:51:42.558Z,9.73
2019-02-06T23:54:11.990Z,11.77
2019-02-06T23:56:41.257Z,9.70
2019-02-06T23:59:10.993Z,9.80
